createdAt,value
2024-02-29T05:34:17.000Z,70.803
2024-02-29T05:35:33.000Z,11.139
2024-02-29T05:36:48.000Z,8.118
2024-02-29T05:38:03.000Z,14.539
2024-02-29T05:39:18.000Z,23.131
2024-02-29T05:40:34.000Z,27.757
2024-02-29T05:41:51.000Z,25.774
2024-02-29T05:43:07.000Z,11.896
2024-02-29T05:44:22.000Z,11.439
2024-02-29T05:45:37.000Z,11.896
2024-02-29T05:46:53.000Z,6.944
2024-02-29T05:48:08.000Z,8.415
2024-02-29T05:49:25.000Z,8.151
2024-02-29T05:50:41.000Z,5.018
2024-02-29T05:51:57.000Z,10.901
2024-02-29T05:53:13.000Z,9.913
2024-02-29T05:54:28.000Z,66.132
2024-02-29T05:55:44.000Z,11.896
2024-02-29T05:56:59.000Z,18.505
2024-02-29T05:58:15.000Z,17.183
2024-02-29T05:59:31.000Z,38.992
2024-02-29T06:00:47.000Z,46.262
2024-02-29T06:02:02.000Z,68.732
2024-02-29T06:03:17.000Z,98.472
2024-02-29T06:04:33.000Z,107.724
2024-02-29T06:05:48.000Z,102.437
2024-02-29T06:07:04.000Z,138.786
2024-02-29T06:08:21.000Z,152.003
2024-02-29T06:09:37.000Z,130.855
2024-02-29T06:10:52.000Z,159.273
2024-02-29T06:12:07.000Z,171.169
2024-02-29T06:13:23.000Z,176.456
2024-02-29T06:14:38.000Z,157.291
2024-02-29T06:15:53.000Z,150.021
2024-02-29T06:17:10.000Z,148.038
2024-02-29T06:18:28.000Z,142.751
2024-02-29T06:19:44.000Z,244.527
2024-02-29T06:20:59.000Z,578.274
2024-02-29T06:22:14.000Z,787.114
2024-02-29T06:23:29.000Z,1214.706
2024-02-29T06:24:44.000Z,467.906
2024-02-29T06:26:01.000Z,354.895
2024-02-29T06:27:17.000Z,399.174
2024-02-29T06:28:34.000Z,961.587
2024-02-29T06:29:50.000Z,726.973
2024-02-29T06:31:05.000Z,1231.889
2024-02-29T06:32:21.000Z,1216.688
2024-02-29T06:33:36.000Z,1583.479
2024-02-29T06:34:51.000Z,1486.99
2024-02-29T06:36:07.000Z,1262.95
2024-02-29T06:37:24.000Z,1366.709
2024-02-29T06:38:41.000Z,1341.596
2024-02-29T06:39:57.000Z,1227.263
2024-02-29T06:41:12.000Z,963.57
2024-02-29T06:42:27.000Z,717.06
2024-02-29T06:43:42.000Z,479.802
2024-02-29T06:44:58.000Z,351.591
2024-02-29T06:46:13.000Z,370.756
2024-02-29T06:47:30.000Z,383.974
2024-02-29T06:48:47.000Z,295.415
2024-02-29T06:50:03.000Z,177.117
2024-02-29T06:51:18.000Z,106.402
2024-02-29T06:52:34.000Z,89.219
2024-02-29T06:53:49.000Z,80.628
2024-02-29T06:55:04.000Z,59.48
2024-02-29T06:56:20.000Z,44.279
2024-02-29T06:57:36.000Z,21.148
2024-02-29T06:58:52.000Z,16.162
2024-02-29T07:00:07.000Z,9.611
2024-02-29T07:01:22.000Z,11.487
2024-02-29T07:02:38.000Z,8.833
2024-02-29T07:03:53.000Z,14.862
2024-02-29T07:05:09.000Z,17.641
2024-02-29T07:06:26.000Z,9.541
2024-02-29T07:07:42.000Z,12.994
2024-02-29T07:08:58.000Z,8.184
2024-02-29T07:10:13.000Z,10.135
2024-02-29T07:11:28.000Z,11.275
2024-02-29T07:12:43.000Z,9.161
2024-02-29T07:13:59.000Z,9.566
2024-02-29T07:15:15.000Z,9.478
2024-02-29T07:16:32.000Z,6.953
2024-02-29T07:17:47.000Z,7.712
2024-02-29T07:19:03.000Z,7.609
2024-02-29T07:20:18.000Z,5.673
2024-02-29T07:21:34.000Z,5.725
2024-02-29T07:22:49.000Z,8.785
2024-02-29T07:24:05.000Z,8.267
2024-02-29T07:25:21.000Z,7.102
2024-02-29T07:26:38.000Z,12.902
2024-02-29T07:27:59.000Z,10.245
2024-02-29T07:29:20.000Z,5.075
2024-02-29T07:30:37.000Z,11.896
2024-02-29T07:31:53.000Z,5.684
2024-02-29T07:33:09.000Z,8.867
2024-02-29T07:34:25.000Z,8.258
2024-02-29T07:35:40.000Z,7.541
2024-02-29T07:36:56.000Z,9.729
2024-02-29T07:38:11.000Z,8.093
2024-02-29T07:39:27.000Z,6.338
2024-02-29T07:40:43.000Z,11.655
2024-02-29T07:42:00.000Z,12.528
2024-02-29T07:43:16.000Z,10.151
2024-02-29T07:44:31.000Z,6.58
2024-02-29T07:45:46.000Z,9.111
2024-02-29T07:47:01.000Z,9.759
2024-02-29T07:48:17.000Z,7.772
2024-02-29T07:49:33.000Z,6.267
2024-02-29T07:50:50.000Z,5.721
2024-02-29T07:52:06.000Z,6.807
2024-02-29T07:53:22.000Z,4.902
2024-02-29T07:54:37.000Z,5.689
2024-02-29T07:55:52.000Z,7.117
2024-02-29T07:57:07.000Z,5.627
2024-02-29T07:58:23.000Z,72.07
2024-02-29T07:59:39.000Z,3.704
2024-02-29T08:00:55.000Z,6.297
2024-02-29T08:02:12.000Z,7.609
2024-02-29T08:03:27.000Z,6.936
2024-02-29T08:04:42.000Z,6.181
2024-02-29T08:05:57.000Z,10.256
2024-02-29T08:07:13.000Z,4.321
2024-02-29T08:08:28.000Z,5.658
2024-02-29T08:09:44.000Z,5.741
2024-02-29T08:11:00.000Z,8.804
2024-02-29T08:12:16.000Z,8.849
2024-02-29T08:13:31.000Z,4.873
2024-02-29T08:14:46.000Z,8.078
2024-02-29T08:16:01.000Z,12.829
2024-02-29T08:17:18.000Z,12.556
2024-02-29T08:18:34.000Z,72.267
2024-02-29T08:19:49.000Z,9.716
2024-02-29T08:21:05.000Z,6.896
2024-02-29T08:22:20.000Z,7.015
2024-02-29T08:23:35.000Z,8.997
2024-02-29T08:24:51.000Z,6.533
2024-02-29T08:26:07.000Z,3.711
2024-02-29T08:27:23.000Z,7.267
2024-02-29T08:28:38.000Z,5.718
2024-02-29T08:29:54.000Z,4.368
2024-02-29T08:31:09.000Z,8.362
2024-02-29T08:32:24.000Z,33.705
2024-02-29T08:33:40.000Z,6.368
2024-02-29T08:34:56.000Z,7.055
2024-02-29T08:36:13.000Z,5.169
2024-02-29T08:37:28.000Z,5.797
2024-02-29T08:38:44.000Z,6.419
2024-02-29T08:39:59.000Z,5.047
2024-02-29T08:41:15.000Z,5.582
2024-02-29T08:42:30.000Z,4.418
2024-02-29T08:43:47.000Z,7.473
2024-02-29T08:45:03.000Z,7.557
2024-02-29T08:46:18.000Z,6.944
2024-02-29T08:47:34.000Z,6.144
2024-02-29T08:48:49.000Z,10.756
2024-02-29T08:50:05.000Z,7.154
2024-02-29T08:51:20.000Z,5.028
2024-02-29T08:52:36.000Z,7.796
2024-02-29T08:53:53.000Z,7.133
2024-02-29T08:55:09.000Z,7.676
2024-02-29T08:56:25.000Z,9.252
2024-02-29T08:57:40.000Z,13.012
2024-02-29T08:58:55.000Z,7.038
2024-02-29T09:00:10.000Z,6.483
2024-02-29T09:01:26.000Z,9.406
2024-02-29T09:02:42.000Z,7.205
2024-02-29T09:03:58.000Z,9.715
2024-02-29T09:05:15.000Z,6.987
2024-02-29T09:06:30.000Z,9.416
2024-02-29T09:07:46.000Z,7.635
2024-02-29T09:09:02.000Z,10.173
2024-02-29T09:10:17.000Z,4.246
2024-02-29T09:11:32.000Z,8.163
2024-02-29T09:12:48.000Z,7.619
2024-02-29T09:14:05.000Z,5.071
2024-02-29T09:15:21.000Z,8.36
2024-02-29T09:16:37.000Z,6.269
2024-02-29T09:17:52.000Z,8.413
2024-02-29T09:19:07.000Z,10.462
2024-02-29T09:20:22.000Z,8.725
2024-02-29T09:21:38.000Z,9.401
2024-02-29T09:22:54.000Z,9.043
2024-02-29T09:24:11.000Z,33.705
2024-02-29T09:25:26.000Z,11.389
2024-02-29T09:26:42.000Z,14.194
2024-02-29T09:27:57.000Z,11.896
2024-02-29T09:29:12.000Z,12.557
2024-02-29T09:30:28.000Z,5.075
2024-02-29T09:31:44.000Z,7.031
2024-02-29T09:33:00.000Z,6.928
2024-02-29T09:34:17.000Z,10.172
2024-02-29T09:35:33.000Z,8.286
2024-02-29T09:36:49.000Z,9.234
2024-02-29T09:38:04.000Z,13.322
2024-02-29T09:39:19.000Z,5.806
2024-02-29T09:40:34.000Z,7.528
2024-02-29T09:41:51.000Z,8.101
2024-02-29T09:43:07.000Z,5.075
2024-02-29T09:44:23.000Z,12.013
2024-02-29T09:45:38.000Z,12.033
2024-02-29T09:46:53.000Z,13.039
2024-02-29T09:48:08.000Z,8.348
2024-02-29T09:49:24.000Z,10.277
2024-02-29T09:50:41.000Z,9.625
2024-02-29T09:51:57.000Z,13.4
2024-02-29T09:53:14.000Z,13.725
2024-02-29T09:54:29.000Z,4.295
2024-02-29T09:55:44.000Z,10.151
2024-02-29T09:56:59.000Z,7.144
2024-02-29T09:58:14.000Z,4.246
2024-02-29T09:59:31.000Z,9.401
2024-02-29T10:00:47.000Z,6.338
2024-02-29T10:02:03.000Z,7.624
2024-02-29T10:03:19.000Z,9.577
2024-02-29T10:04:34.000Z,11.533
2024-02-29T10:05:49.000Z,9.678
2024-02-29T10:07:05.000Z,10.825
2024-02-29T10:08:20.000Z,7.682
2024-02-29T10:09:37.000Z,10.951
2024-02-29T10:10:53.000Z,7.235
2024-02-29T10:12:09.000Z,7.06
2024-02-29T10:13:24.000Z,7.624
2024-02-29T10:14:39.000Z,6.351
2024-02-29T10:15:54.000Z,8.176
2024-02-29T10:17:10.000Z,12.549
2024-02-29T10:18:27.000Z,5.508
2024-02-29T10:19:43.000Z,11.494
2024-02-29T10:20:59.000Z,9.927
2024-02-29T10:22:14.000Z,5.57
2024-02-29T10:23:30.000Z,12.211
2024-02-29T10:24:45.000Z,10.88
2024-02-29T10:26:00.000Z,10.052
2024-02-29T10:27:16.000Z,9.456
2024-02-29T10:28:33.000Z,12.067
2024-02-29T10:29:49.000Z,12.325
2024-02-29T10:31:05.000Z,3.621
2024-02-29T10:32:20.000Z,8.779
2024-02-29T10:33:35.000Z,5.559
2024-02-29T10:34:51.000Z,9.487
2024-02-29T10:36:06.000Z,11.373
2024-02-29T10:37:23.000Z,10.678
2024-02-29T10:38:39.000Z,74.396
2024-02-29T10:39:55.000Z,8.341
2024-02-29T10:41:10.000Z,12.822
2024-02-29T10:42:26.000Z,10.192
2024-02-29T10:43:41.000Z,12.686
2024-02-29T10:44:56.000Z,15.385
2024-02-29T10:46:12.000Z,5.699
2024-02-29T10:47:28.000Z,8.344
2024-02-29T10:48:45.000Z,16.412
2024-02-29T10:50:01.000Z,7.46
2024-02-29T10:51:16.000Z,14.039
2024-02-29T10:52:31.000Z,7.795
2024-02-29T10:53:47.000Z,10.258
2024-02-29T10:55:02.000Z,9.467
2024-02-29T10:56:19.000Z,6.806
2024-02-29T10:57:35.000Z,3.724
2024-02-29T10:58:51.000Z,12.22
2024-02-29T11:00:06.000Z,10.29
2024-02-29T11:01:21.000Z,11.487
2024-02-29T11:02:36.000Z,8.801
2024-02-29T11:03:52.000Z,8.895
2024-02-29T11:05:08.000Z,9.599
2024-02-29T11:06:24.000Z,12.711
2024-02-29T11:07:39.000Z,11.124
2024-02-29T11:08:55.000Z,9.598
2024-02-29T11:10:10.000Z,13.523
2024-02-29T11:11:25.000Z,11.547
2024-02-29T11:12:41.000Z,69.211
2024-02-29T11:13:57.000Z,11.996
2024-02-29T11:15:14.000Z,14.786
2024-02-29T11:16:29.000Z,8.373
2024-02-29T11:17:44.000Z,10.325
2024-02-29T11:18:59.000Z,6.173
2024-02-29T11:20:14.000Z,10.259
2024-02-29T11:21:30.000Z,7.015
2024-02-29T11:22:47.000Z,9.252
2024-02-29T11:24:03.000Z,12.878
2024-02-29T11:25:18.000Z,9.818
2024-02-29T11:26:34.000Z,12.783
2024-02-29T11:27:49.000Z,11.437
2024-02-29T11:29:04.000Z,7.005
2024-02-29T11:30:19.000Z,9.519
2024-02-29T11:31:36.000Z,12.063
2024-02-29T11:32:53.000Z,7.55
2024-02-29T11:34:09.000Z,4.873
2024-02-29T11:35:24.000Z,6.944
2024-02-29T11:36:39.000Z,10.176
2024-02-29T11:37:55.000Z,8.274
2024-02-29T11:39:10.000Z,7.662
2024-02-29T11:40:26.000Z,5.545
2024-02-29T11:41:42.000Z,12.196
2024-02-29T11:42:59.000Z,9.157
2024-02-29T11:44:15.000Z,6.372
2024-02-29T11:45:30.000Z,9.519
2024-02-29T11:46:45.000Z,14.839
2024-02-29T11:48:01.000Z,10.86
2024-02-29T11:49:17.000Z,12.446
2024-02-29T11:50:32.000Z,5.689
2024-02-29T11:51:49.000Z,11.896
2024-02-29T11:53:06.000Z,7.847
2024-02-29T11:54:21.000Z,6.264
2024-02-29T11:55:36.000Z,10.842
2024-02-29T11:56:51.000Z,8.591
2024-02-29T11:58:08.000Z,8.897
2024-02-29T11:59:23.000Z,11.981
2024-02-29T12:00:39.000Z,6.434
2024-02-29T12:01:55.000Z,9.134
2024-02-29T12:03:11.000Z,9.439
2024-02-29T12:04:27.000Z,8.789
2024-02-29T12:05:42.000Z,10.464
2024-02-29T12:06:57.000Z,9.587
2024-02-29T12:08:13.000Z,5.039
2024-02-29T12:09:30.000Z,7.775
2024-02-29T12:10:45.000Z,6.181
2024-02-29T12:12:02.000Z,8.241
2024-02-29T12:13:18.000Z,8.207
2024-02-29T12:14:34.000Z,7.517
2024-02-29T12:15:49.000Z,8.101
2024-02-29T12:17:04.000Z,11.896
2024-02-29T12:18:19.000Z,8.482
2024-02-29T12:19:35.000Z,9.002
2024-02-29T12:20:52.000Z,10.251
2024-02-29T12:22:08.000Z,12.064
2024-02-29T12:23:24.000Z,13.568
2024-02-29T12:24:39.000Z,8.843
2024-02-29T12:25:54.000Z,6.939
2024-02-29T12:27:09.000Z,11.977
2024-02-29T12:28:25.000Z,8.269
2024-02-29T12:29:42.000Z,12.055
2024-02-29T12:30:58.000Z,12.185
2024-02-29T12:32:14.000Z,6.878
2024-02-29T12:33:29.000Z,12.468
2024-02-29T12:34:44.000Z,62.562
2024-02-29T12:36:00.000Z,4.873
2024-02-29T12:37:15.000Z,9.214
2024-02-29T12:38:32.000Z,10.756
2024-02-29T12:39:48.000Z,7.06
2024-02-29T12:41:03.000Z,12.557
2024-02-29T12:42:19.000Z,11.614
2024-02-29T12:43:34.000Z,8.119
2024-02-29T12:44:49.000Z,14.539
2024-02-29T12:46:05.000Z,8.184
2024-02-29T12:47:22.000Z,8.968
2024-02-29T12:48:37.000Z,10.758
2024-02-29T12:49:53.000Z,7.796
2024-02-29T12:51:08.000Z,8.993
2024-02-29T12:52:23.000Z,11.5
2024-02-29T12:53:39.000Z,15.404
2024-02-29T12:54:55.000Z,7.193
2024-02-29T12:56:12.000Z,7.861
2024-02-29T12:57:28.000Z,10.818
2024-02-29T12:58:44.000Z,8.891
2024-02-29T12:59:59.000Z,9.482
2024-02-29T13:01:14.000Z,9.608
2024-02-29T13:02:30.000Z,6.852
2024-02-29T13:03:46.000Z,9.449
2024-02-29T13:05:02.000Z,10.785
2024-02-29T13:06:18.000Z,10.485
2024-02-29T13:07:33.000Z,5.673
2024-02-29T13:08:49.000Z,4.373
2024-02-29T13:10:04.000Z,9.44
2024-02-29T13:11:20.000Z,9.161
2024-02-29T13:12:36.000Z,19.827
2024-02-29T13:13:52.000Z,10.116
2024-02-29T13:15:08.000Z,6.196
2024-02-29T13:16:23.000Z,4.873
2024-02-29T13:17:39.000Z,6.944
2024-02-29T13:18:54.000Z,7.463
2024-02-29T13:20:09.000Z,11.402
2024-02-29T13:21:25.000Z,11.896
2024-02-29T13:22:41.000Z,5.55
2024-02-29T13:23:57.000Z,4.246
2024-02-29T13:25:13.000Z,8.849
2024-02-29T13:26:28.000Z,13.879
2024-02-29T13:27:43.000Z,10.742
2024-02-29T13:28:58.000Z,11.605
2024-02-29T13:30:14.000Z,9.735
2024-02-29T13:31:31.000Z,6.244
2024-02-29T13:32:47.000Z,8.617
2024-02-29T13:34:02.000Z,10.664
2024-02-29T13:35:17.000Z,10.137
2024-02-29T13:36:33.000Z,8.403
2024-02-29T13:37:48.000Z,8.461
2024-02-29T13:39:04.000Z,8.999
2024-02-29T13:40:21.000Z,9.258
2024-02-29T13:41:37.000Z,6.357
2024-02-29T13:42:53.000Z,8.986
2024-02-29T13:44:08.000Z,13.36
2024-02-29T13:45:23.000Z,10.76
2024-02-29T13:46:39.000Z,6.806
2024-02-29T13:47:54.000Z,8.496
2024-02-29T13:49:10.000Z,7.598
2024-02-29T13:50:26.000Z,5.517
2024-02-29T13:51:43.000Z,10.799
2024-02-29T13:52:59.000Z,7.482
2024-02-29T13:54:14.000Z,6.443
2024-02-29T13:55:29.000Z,7.714
2024-02-29T13:56:44.000Z,17.183
2024-02-29T13:58:00.000Z,8.279
2024-02-29T13:59:16.000Z,7.462
2024-02-29T14:00:32.000Z,10.884
2024-02-29T14:01:48.000Z,8.11
2024-02-29T14:03:04.000Z,7.517
2024-02-29T14:04:19.000Z,6.262
2024-02-29T14:05:34.000Z,5.582
2024-02-29T14:06:50.000Z,8.123
2024-02-29T14:08:05.000Z,9.395
2024-02-29T14:09:22.000Z,5.688
2024-02-29T14:10:38.000Z,68.337
2024-02-29T14:11:53.000Z,11.235
2024-02-29T14:13:08.000Z,10.313
2024-02-29T14:14:24.000Z,9.483
2024-02-29T14:15:39.000Z,9.298
2024-02-29T14:16:56.000Z,7.434
2024-02-29T14:18:12.000Z,7.965
2024-02-29T14:19:28.000Z,10.263
2024-02-29T14:20:44.000Z,5.591
2024-02-29T14:22:03.000Z,9.127
2024-02-29T14:23:18.000Z,8.225
2024-02-29T14:24:33.000Z,9.741
2024-02-29T14:25:48.000Z,4.333
2024-02-29T14:27:04.000Z,5.622
2024-02-29T14:28:21.000Z,10.908
2024-02-29T14:29:37.000Z,8.393
2024-02-29T14:30:52.000Z,11.346
2024-02-29T14:32:07.000Z,13.334
2024-02-29T14:33:23.000Z,11.979
2024-02-29T14:34:38.000Z,7.958
2024-02-29T14:35:54.000Z,8.279
2024-02-29T14:37:11.000Z,11.33
2024-02-29T14:38:27.000Z,3.621
2024-02-29T14:39:42.000Z,6.297
2024-02-29T14:40:58.000Z,6.396
2024-02-29T14:42:13.000Z,7.557
2024-02-29T14:43:28.000Z,7.051
2024-02-29T14:44:44.000Z,6.239
2024-02-29T14:46:00.000Z,7.518
2024-02-29T14:47:16.000Z,7.586
2024-02-29T14:48:33.000Z,5.697
2024-02-29T14:49:49.000Z,7.738
2024-02-29T14:51:04.000Z,7.494
2024-02-29T14:52:19.000Z,12.211
2024-02-29T14:53:35.000Z,8.202
2024-02-29T14:54:50.000Z,8.341
2024-02-29T14:56:06.000Z,13.992
2024-02-29T14:57:23.000Z,6.807
2024-02-29T14:58:38.000Z,10.395
2024-02-29T14:59:54.000Z,10.244
2024-02-29T15:01:10.000Z,8.472
2024-02-29T15:02:25.000Z,8.872
2024-02-29T15:03:40.000Z,6.342
2024-02-29T15:04:55.000Z,11.987
2024-02-29T15:06:12.000Z,7.061
2024-02-29T15:07:28.000Z,9.728
2024-02-29T15:08:43.000Z,6.342
2024-02-29T15:10:00.000Z,8.113
2024-02-29T15:11:15.000Z,11.752
2024-02-29T15:12:30.000Z,12.926
2024-02-29T15:13:46.000Z,10.134
2024-02-29T15:15:01.000Z,9.431
2024-02-29T15:16:17.000Z,7.588
2024-02-29T15:17:33.000Z,8.888
2024-02-29T15:18:49.000Z,6.43
2024-02-29T15:20:05.000Z,5.018
2024-02-29T15:21:20.000Z,7.797
2024-02-29T15:22:35.000Z,11.896
2024-02-29T15:23:51.000Z,7.714
2024-02-29T15:25:07.000Z,5.886
2024-02-29T15:26:23.000Z,8.867
2024-02-29T15:27:38.000Z,8.835
2024-02-29T15:28:53.000Z,7.826
2024-02-29T15:30:08.000Z,11.341
2024-02-29T15:31:24.000Z,4.246
2024-02-29T15:32:40.000Z,8.456
2024-02-29T15:33:56.000Z,8.591
2024-02-29T15:35:12.000Z,8.808
2024-02-29T15:36:28.000Z,7.598
2024-02-29T15:37:43.000Z,7.018
2024-02-29T15:38:58.000Z,8.974
2024-02-29T15:40:14.000Z,8.98
2024-02-29T15:41:30.000Z,12.074
2024-02-29T15:42:46.000Z,6.144
2024-02-29T15:44:03.000Z,8.452
2024-02-29T15:45:19.000Z,5.657
2024-02-29T15:46:34.000Z,9.265
2024-02-29T15:47:49.000Z,12.6
2024-02-29T15:49:05.000Z,7.691
2024-02-29T15:50:20.000Z,6.381
2024-02-29T15:51:36.000Z,3.678
2024-02-29T15:52:53.000Z,9.299
2024-02-29T15:54:09.000Z,6.196
2024-02-29T15:55:25.000Z,7.491
2024-02-29T15:56:40.000Z,9.373
2024-02-29T15:57:55.000Z,6.802
2024-02-29T15:59:10.000Z,6.269
2024-02-29T16:00:26.000Z,8.818
2024-02-29T16:01:43.000Z,8.986
2024-02-29T16:02:59.000Z,12.302
2024-02-29T16:04:14.000Z,6.802
2024-02-29T16:05:29.000Z,9.557
2024-02-29T16:06:44.000Z,7.635
2024-02-29T16:07:59.000Z,3.7
2024-02-29T16:09:15.000Z,5.088
2024-02-29T16:10:32.000Z,3.621
2024-02-29T16:11:48.000Z,5.815
2024-02-29T16:13:04.000Z,4.985
2024-02-29T16:14:19.000Z,8.341
2024-02-29T16:15:34.000Z,4.426
2024-02-29T16:16:49.000Z,5.721
2024-02-29T16:18:05.000Z,8.143
2024-02-29T16:19:21.000Z,8.766
2024-02-29T16:20:38.000Z,12.164
2024-02-29T16:21:53.000Z,4.985
2024-02-29T16:23:09.000Z,10.284
2024-02-29T16:24:24.000Z,10.137
2024-02-29T16:25:40.000Z,7.164
2024-02-29T16:26:55.000Z,8.461
2024-02-29T16:28:11.000Z,10.292
2024-02-29T16:29:28.000Z,5.075
2024-02-29T16:30:44.000Z,8.908
2024-02-29T16:32:00.000Z,7.625
2024-02-29T16:33:15.000Z,10.892
2024-02-29T16:34:30.000Z,9.06
2024-02-29T16:35:45.000Z,11.006
2024-02-29T16:37:01.000Z,8.339
2024-02-29T16:38:18.000Z,10.007
2024-02-29T16:39:34.000Z,8.412
2024-02-29T16:40:50.000Z,7.233
2024-02-29T16:42:06.000Z,5.139
2024-02-29T16:43:21.000Z,10.113
2024-02-29T16:44:37.000Z,10.423
2024-02-29T16:45:52.000Z,7.164
2024-02-29T16:47:08.000Z,9.799
2024-02-29T16:48:24.000Z,6.392
2024-02-29T16:49:41.000Z,4.325
2024-02-29T16:50:56.000Z,8.874
2024-02-29T16:52:11.000Z,12.659
2024-02-29T16:53:26.000Z,11.887
2024-02-29T16:54:42.000Z,8.753
2024-02-29T16:55:57.000Z,7.765
2024-02-29T16:57:13.000Z,9.954
2024-02-29T16:58:30.000Z,6.297
2024-02-29T16:59:45.000Z,9.302
2024-02-29T17:01:00.000Z,5.115
2024-02-29T17:02:15.000Z,5.047
2024-02-29T17:03:32.000Z,7.658
2024-02-29T17:04:47.000Z,8.878
2024-02-29T17:06:03.000Z,11.015
2024-02-29T17:07:20.000Z,6.267
2024-02-29T17:08:36.000Z,8.188
2024-02-29T17:09:51.000Z,12.047
2024-02-29T17:11:07.000Z,7.528
2024-02-29T17:12:22.000Z,7.096
2024-02-29T17:13:37.000Z,8.225
2024-02-29T17:14:53.000Z,14.698
2024-02-29T17:16:09.000Z,9.372
2024-02-29T17:17:25.000Z,4.325
2024-02-29T17:18:41.000Z,8.101
2024-02-29T17:19:57.000Z,8.738
2024-02-29T17:21:12.000Z,4.93
2024-02-29T17:22:27.000Z,7.142
2024-02-29T17:23:42.000Z,9.618
2024-02-29T17:24:59.000Z,12.165
2024-02-29T17:26:15.000Z,10.263
2024-02-29T17:27:31.000Z,14.708
2024-02-29T17:28:47.000Z,4.93
2024-02-29T17:30:02.000Z,4.333
2024-02-29T17:31:17.000Z,8.851
2024-02-29T17:32:32.000Z,10.03
2024-02-29T17:33:49.000Z,6.254
2024-02-29T17:35:05.000Z,6.848
2024-02-29T17:36:21.000Z,9.795
2024-02-29T17:37:37.000Z,5.545
2024-02-29T17:38:52.000Z,8.823
2024-02-29T17:40:07.000Z,12.863
2024-02-29T17:41:22.000Z,5.794
2024-02-29T17:42:39.000Z,6.335
2024-02-29T17:43:55.000Z,10.289
2024-02-29T17:45:11.000Z,5.658
2024-02-29T17:46:28.000Z,7.108
2024-02-29T17:47:43.000Z,5.751
2024-02-29T17:48:58.000Z,6.795
2024-02-29T17:50:14.000Z,4.902
2024-02-29T17:51:29.000Z,11.446
2024-02-29T17:52:44.000Z,5.582
2024-02-29T17:54:01.000Z,7.476
2024-02-29T17:55:17.000Z,6.867
2024-02-29T17:56:32.000Z,5.853
2024-02-29T17:57:48.000Z,9.558
2024-02-29T17:59:03.000Z,8.493
2024-02-29T18:00:18.000Z,3.7
2024-02-29T18:01:34.000Z,6.916
2024-02-29T18:02:51.000Z,6.852
2024-02-29T18:04:07.000Z,5.727
2024-02-29T18:05:23.000Z,16.216
2024-02-29T18:06:38.000Z,6.249
2024-02-29T18:07:53.000Z,7.959
2024-02-29T18:09:08.000Z,6.357
2024-02-29T18:10:24.000Z,6.254
2024-02-29T18:11:40.000Z,3.621
2024-02-29T18:12:57.000Z,11.829
2024-02-29T18:14:12.000Z,8.309
2024-02-29T18:15:28.000Z,6.239
2024-02-29T18:16:43.000Z,6.607
2024-02-29T18:17:58.000Z,4.873
2024-02-29T18:19:14.000Z,7.619
2024-02-29T18:20:31.000Z,2.979
2024-02-29T18:21:48.000Z,7.608
2024-02-29T18:23:03.000Z,8.456
2024-02-29T18:24:19.000Z,8.938
2024-02-29T18:25:34.000Z,4.246
2024-02-29T18:26:49.000Z,5.735
2024-02-29T18:28:05.000Z,7.191
2024-02-29T18:29:20.000Z,9.055
2024-02-29T18:30:37.000Z,7.557
2024-02-29T18:31:53.000Z,10.398
2024-02-29T18:33:09.000Z,9.373
2024-02-29T18:34:25.000Z,7.205
2024-02-29T18:35:40.000Z,7.836
2024-02-29T18:36:55.000Z,4.246
2024-02-29T18:38:11.000Z,7.726
2024-02-29T18:39:27.000Z,5.663
2024-02-29T18:40:43.000Z,4.325
2024-02-29T18:41:59.000Z,8.222
2024-02-29T18:43:14.000Z,8.924
2024-02-29T18:44:29.000Z,9.571
2024-02-29T18:45:44.000Z,6.369
2024-02-29T18:47:00.000Z,26.435
2024-02-29T18:48:16.000Z,2.979
2024-02-29T18:49:33.000Z,6.443
2024-02-29T18:50:49.000Z,7.797
2024-02-29T18:52:04.000Z,13.439
2024-02-29T18:53:20.000Z,10.394
2024-02-29T18:54:35.000Z,10.679
2024-02-29T18:55:51.000Z,4.974
2024-02-29T18:57:06.000Z,7.923
2024-02-29T18:58:23.000Z,6.906
2024-02-29T18:59:39.000Z,5.775
2024-02-29T19:00:54.000Z,5.699
2024-02-29T19:02:09.000Z,6.414
2024-02-29T19:03:25.000Z,8.411
2024-02-29T19:04:40.000Z,8.788
2024-02-29T19:05:56.000Z,10.277
2024-02-29T19:07:13.000Z,5.773
2024-02-29T19:08:29.000Z,9.06
2024-02-29T19:09:44.000Z,2.979
2024-02-29T19:10:59.000Z,11.4
2024-02-29T19:12:15.000Z,7.11
2024-02-29T19:13:30.000Z,6.173
2024-02-29T19:14:47.000Z,5.517
2024-02-29T19:16:03.000Z,5.129
2024-02-29T19:17:19.000Z,5.885
2024-02-29T19:18:34.000Z,6.449
2024-02-29T19:19:49.000Z,6.181
2024-02-29T19:21:05.000Z,5.095
2024-02-29T19:22:20.000Z,11.405
2024-02-29T19:23:36.000Z,10.02
2024-02-29T19:24:52.000Z,9.913
2024-02-29T19:26:09.000Z,6.326
2024-02-29T19:27:25.000Z,8.531
2024-02-29T19:28:40.000Z,11.194
2024-02-29T19:29:56.000Z,6.187
2024-02-29T19:31:11.000Z,9.785
2024-02-29T19:32:27.000Z,7.773
2024-02-29T19:33:42.000Z,8.867
2024-02-29T19:34:59.000Z,8.325
2024-02-29T19:36:15.000Z,8.802
2024-02-29T19:37:31.000Z,5.905
2024-02-29T19:38:46.000Z,8.424
2024-02-29T19:40:02.000Z,7.73
2024-02-29T19:41:17.000Z,6.386
2024-02-29T19:42:32.000Z,5.622
2024-02-29T19:43:49.000Z,12.474
2024-02-29T19:45:05.000Z,16.977
2024-02-29T19:46:21.000Z,11.34
2024-02-29T19:47:36.000Z,8.787
2024-02-29T19:48:52.000Z,27.262
2024-02-29T19:50:07.000Z,7.53
2024-02-29T19:51:23.000Z,4.368
2024-02-29T19:52:39.000Z,12.631
2024-02-29T19:53:56.000Z,7.259
2024-02-29T19:55:13.000Z,8.075
2024-02-29T19:56:28.000Z,12.185
2024-02-29T19:57:44.000Z,8.258
2024-02-29T19:58:59.000Z,4.943
2024-02-29T20:00:15.000Z,5.047
2024-02-29T20:01:30.000Z,6.839
2024-02-29T20:02:47.000Z,7.741
2024-02-29T20:04:03.000Z,11.004
2024-02-29T20:05:18.000Z,7.829
2024-02-29T20:06:34.000Z,11.763
2024-02-29T20:07:49.000Z,4.246
2024-02-29T20:09:05.000Z,3.621
2024-02-29T20:10:20.000Z,5.517
2024-02-29T20:11:36.000Z,6.408
2024-02-29T20:12:52.000Z,30.401
2024-02-29T20:14:09.000Z,9.602
2024-02-29T20:15:24.000Z,10.438
2024-02-29T20:16:40.000Z,4.368
2024-02-29T20:17:55.000Z,5.047
2024-02-29T20:19:11.000Z,6.269
2024-02-29T20:20:26.000Z,5.663
2024-02-29T20:21:42.000Z,8.084
2024-02-29T20:22:58.000Z,7.923
2024-02-29T20:24:15.000Z,8.42
2024-02-29T20:25:30.000Z,7.024
2024-02-29T20:26:46.000Z,8.93
2024-02-29T20:28:01.000Z,3.621
2024-02-29T20:29:16.000Z,7.025
2024-02-29T20:30:32.000Z,7.005
2024-02-29T20:31:49.000Z,12.503
2024-02-29T20:33:05.000Z,17.218
2024-02-29T20:34:21.000Z,6.34
2024-02-29T20:35:36.000Z,8.817
2024-02-29T20:36:52.000Z,8.884
2024-02-29T20:38:07.000Z,8.37
2024-02-29T20:39:22.000Z,11.274
2024-02-29T20:40:38.000Z,8.938
2024-02-29T20:41:54.000Z,5.075
2024-02-29T20:43:11.000Z,12.442
2024-02-29T20:44:26.000Z,7.724
2024-02-29T20:45:41.000Z,12.198
2024-02-29T20:46:56.000Z,10.902
2024-02-29T20:48:12.000Z,5.657
2024-02-29T20:49:27.000Z,8.362
2024-02-29T20:50:44.000Z,9.926
2024-02-29T20:52:01.000Z,5.853
2024-02-29T20:53:17.000Z,7.033
2024-02-29T20:54:32.000Z,6.34
2024-02-29T20:55:47.000Z,8.078
2024-02-29T20:57:03.000Z,7.641
2024-02-29T20:58:18.000Z,10.029
2024-02-29T20:59:34.000Z,8.207
2024-02-29T21:00:50.000Z,5.718
2024-02-29T21:02:07.000Z,6.443
2024-02-29T21:03:22.000Z,5.55
2024-02-29T21:04:37.000Z,12.785
2024-02-29T21:05:53.000Z,8.198
2024-02-29T21:07:08.000Z,11.146
2024-02-29T21:08:23.000Z,10.017
2024-02-29T21:09:39.000Z,8.885
2024-02-29T21:10:58.000Z,8.986
2024-02-29T21:12:14.000Z,10.269
2024-02-29T21:13:30.000Z,6.944
2024-02-29T21:14:45.000Z,6.886
2024-02-29T21:16:00.000Z,7.065
2024-02-29T21:17:16.000Z,8.892
2024-02-29T21:18:32.000Z,12.235
2024-02-29T21:19:48.000Z,7.518
2024-02-29T21:21:05.000Z,84.299
2024-02-29T21:22:22.000Z,6.338
2024-02-29T21:23:38.000Z,8.163
2024-02-29T21:24:53.000Z,9.636
2024-02-29T21:26:09.000Z,2.979
2024-02-29T21:27:24.000Z,12.097
2024-02-29T21:28:40.000Z,6.351
2024-02-29T21:29:56.000Z,7.518
2024-02-29T21:31:12.000Z,7.102
2024-02-29T21:32:29.000Z,7.791
2024-02-29T21:33:44.000Z,8.878
2024-02-29T21:35:00.000Z,7.598
2024-02-29T21:36:15.000Z,14.195
2024-02-29T21:37:30.000Z,12.715
2024-02-29T21:38:46.000Z,6.838